createdAt,value
2023-02-01T00:00:08.831Z,180.35
2023-02-01T00:02:42.345Z,165.85
2023-02-01T00:05:12.356Z,159.88
2023-02-01T00:07:41.757Z,141.80
2023-02-01T00:10:12.023Z,128.55
2023-02-01T00:12:41.678Z,136.98
2023-02-01T00:15:11.923Z,128.50
2023-02-01T00:17:42.706Z,121.43
2023-02-01T00:20:12.714Z,93.32
2023-02-01T00:22:42.299Z,89.50
2023-02-01T00:25:13.108Z,92.95
2023-02-01T00:27:42.832Z,83.60
2023-02-01T00:30:13.226Z,79.38
2023-02-01T00:32:42.652Z,65.18
2023-02-01T00:35:13.513Z,79.32
2023-02-01T00:37:43.199Z,91.78
2023-02-01T00:40:13.165Z,112.03
2023-02-01T00:42:42.717Z,91.90
2023-02-01T00:45:12.756Z,103.60
2023-02-01T00:47:42.308Z,95.68
2023-02-01T00:50:12.604Z,94.68
2023-02-01T00:52:42.186Z,83.95
2023-02-01T00:55:11.508Z,79.63
2023-02-01T00:57:41.130Z,88.90
2023-02-01T01:00:13.233Z,75.10
2023-02-01T01:02:44.530Z,85.72
2023-02-01T01:05:18.889Z,102.18
2023-02-01T01:07:49.268Z,112.25
2023-02-01T01:10:19.787Z,121.82
2023-02-01T01:12:50.466Z,145.65
2023-02-01T01:15:21.153Z,162.43
2023-02-01T01:17:54.338Z,160.30
2023-02-01T01:20:36.878Z,141.10
2023-02-01T01:23:09.936Z,107.70
2023-02-01T01:29:44.054Z,108.70
2023-02-01T01:32:14.803Z,116.35
2023-02-01T01:34:45.265Z,133.45
2023-02-01T01:37:26.586Z,136.30
2023-02-01T01:39:58.169Z,131.00
2023-02-01T01:42:28.385Z,156.20
2023-02-01T01:45:09.222Z,142.00
2023-02-01T01:47:49.532Z,164.85
2023-02-01T01:50:26.408Z,170.88
2023-02-01T01:53:00.443Z,190.45
2023-02-01T01:55:35.030Z,200.05
2023-02-01T01:58:13.273Z,196.32
2023-02-01T02:00:44.850Z,210.95
2023-02-01T02:03:52.533Z,206.02
2023-02-01T02:06:34.053Z,202.60
2023-02-01T02:09:06.929Z,215.73
2023-02-01T02:11:37.448Z,223.82
2023-02-01T02:14:50.106Z,241.10
2023-02-01T02:17:39.151Z,230.23
2023-02-01T02:20:42.721Z,271.50
2023-02-01T02:24:05.908Z,242.98
2023-02-01T02:27:03.449Z,275.20
2023-02-01T02:29:58.511Z,229.45
2023-02-01T02:32:50.086Z,236.70
2023-02-01T02:35:46.977Z,215.80
2023-02-01T02:38:39.493Z,195.52
2023-02-01T02:41:40.483Z,214.20
2023-02-01T02:44:52.864Z,196.30
2023-02-01T02:47:51.698Z,184.20
2023-02-01T02:50:53.292Z,199.15
2023-02-01T02:54:09.445Z,200.38
2023-02-01T02:56:59.140Z,165.90
2023-02-01T02:59:49.808Z,172.70
2023-02-01T03:02:38.569Z,171.05
2023-02-01T03:05:08.602Z,168.88
2023-02-01T03:07:47.416Z,152.50
2023-02-01T03:10:23.480Z,129.00
2023-02-01T03:13:00.879Z,138.68
2023-02-01T03:15:42.437Z,128.00
2023-02-01T03:18:31.145Z,117.85
2023-02-01T03:21:05.547Z,120.82
2023-02-01T03:23:40.362Z,99.90
2023-02-01T03:26:17.126Z,93.53
2023-02-01T03:28:57.818Z,88.32
2023-02-01T03:31:29.599Z,78.95
2023-02-01T03:33:59.041Z,71.68
2023-02-01T03:36:37.640Z,75.30
2023-02-01T03:39:19.921Z,72.00
2023-02-01T03:41:57.748Z,70.05
2023-02-01T03:44:54.040Z,64.65
2023-02-01T03:47:29.598Z,77.25
2023-02-01T03:50:09.356Z,60.33
2023-02-01T03:52:51.321Z,78.88
2023-02-01T03:55:24.378Z,53.05
2023-02-01T03:58:12.030Z,65.18
2023-02-01T04:00:41.940Z,69.45
2023-02-01T04:03:11.079Z,60.22
2023-02-01T04:05:39.843Z,68.18
2023-02-01T04:08:10.803Z,71.57
2023-02-01T04:10:40.106Z,66.55
2023-02-01T04:13:10.216Z,64.60
2023-02-01T04:15:40.271Z,61.90
2023-02-01T04:18:09.080Z,69.68
2023-02-01T04:20:38.480Z,66.30
2023-02-01T04:23:07.673Z,65.53
2023-02-01T04:25:36.895Z,59.60
2023-02-01T04:28:06.702Z,56.47
2023-02-01T04:30:36.372Z,55.45
2023-02-01T04:33:08.471Z,55.30
2023-02-01T04:35:37.798Z,62.75
2023-02-01T04:38:06.711Z,54.97
2023-02-01T04:40:36.376Z,45.83
2023-02-01T04:43:19.408Z,56.97
2023-02-01T04:45:57.796Z,52.38
2023-02-01T04:48:27.296Z,48.35
2023-02-01T04:50:56.291Z,54.58
2023-02-01T04:53:25.413Z,40.88
2023-02-01T04:55:54.613Z,49.30
2023-02-01T04:58:23.949Z,45.25
2023-02-01T05:00:53.683Z,38.42
2023-02-01T05:03:23.083Z,42.80
2023-02-01T05:05:53.917Z,36.38
2023-02-01T05:08:27.296Z,59.83
2023-02-01T05:10:56.785Z,35.17
2023-02-01T05:13:44.233Z,34.17
2023-02-01T05:16:16.084Z,41.30
2023-02-01T05:18:45.719Z,43.25
2023-02-01T05:21:15.319Z,57.97
2023-02-01T05:24:03.669Z,39.42
2023-02-01T05:26:33.178Z,31.73
2023-02-01T05:29:06.520Z,35.13
2023-02-01T05:31:44.690Z,40.97
2023-02-01T05:34:20.888Z,39.60
2023-02-01T05:36:54.708Z,38.58
2023-02-01T05:39:56.176Z,25.58
2023-02-01T05:42:35.750Z,44.10
2023-02-01T05:45:17.916Z,36.95
2023-02-01T05:47:48.274Z,31.33
2023-02-01T05:50:19.705Z,39.17
2023-02-01T05:52:50.483Z,29.55
2023-02-01T05:55:21.145Z,34.50
2023-02-01T05:57:51.653Z,42.15
2023-02-01T06:02:58.367Z,29.15
2023-02-01T06:05:54.139Z,38.67
2023-02-01T06:08:33.175Z,50.63
2023-02-01T06:11:10.935Z,36.97
2023-02-01T06:13:42.340Z,36.28
2023-02-01T06:16:19.436Z,37.25
2023-02-01T06:19:01.480Z,29.67
2023-02-01T06:21:31.978Z,41.08
2023-02-01T06:24:03.545Z,31.65
2023-02-01T06:26:34.138Z,33.70
2023-02-01T06:29:04.232Z,42.42
2023-02-01T06:31:37.998Z,27.10
2023-02-01T06:34:08.422Z,29.10
2023-02-01T06:36:38.893Z,27.10
2023-02-01T06:39:09.466Z,26.55
2023-02-01T06:41:39.756Z,29.40
2023-02-01T06:44:09.817Z,26.02
2023-02-01T06:46:40.064Z,27.40
2023-02-01T06:49:11.086Z,32.40
2023-02-01T06:51:54.019Z,24.85
2023-02-01T06:54:47.584Z,27.73
2023-02-01T06:57:21.685Z,27.63
2023-02-01T06:59:51.352Z,34.00
2023-02-01T07:02:20.555Z,32.65
2023-02-01T07:04:49.985Z,31.33
2023-02-01T07:07:21.507Z,39.10
2023-02-01T07:10:01.567Z,32.15
2023-02-01T07:12:31.077Z,31.10
2023-02-01T07:15:00.413Z,40.75
2023-02-01T07:17:31.270Z,28.80
2023-02-01T07:20:02.077Z,33.35
2023-02-01T07:22:31.462Z,44.20
2023-02-01T07:25:00.656Z,32.97
2023-02-01T07:27:29.827Z,42.80
2023-02-01T07:30:02.053Z,32.47
2023-02-01T07:32:32.286Z,30.27
2023-02-01T07:35:01.583Z,36.17
2023-02-01T07:37:31.845Z,35.80
2023-02-01T07:40:01.090Z,21.45
2023-02-01T07:42:30.351Z,29.45
2023-02-01T07:45:07.890Z,25.92
2023-02-01T07:47:44.274Z,29.45
2023-02-01T07:50:13.311Z,30.30
2023-02-01T07:52:42.713Z,28.50
2023-02-01T07:55:12.284Z,28.27
2023-02-01T07:57:41.722Z,32.95
2023-02-01T08:00:44.278Z,33.50
2023-02-01T08:03:14.150Z,36.95
2023-02-01T08:05:44.771Z,40.97
2023-02-01T08:08:15.004Z,27.58
2023-02-01T08:10:44.356Z,34.97
2023-02-01T08:13:13.556Z,32.05
2023-02-01T08:15:42.816Z,32.97
2023-02-01T08:18:13.113Z,41.05
2023-02-01T08:20:44.472Z,24.50
2023-02-01T08:26:39.186Z,33.20
2023-02-01T08:29:11.364Z,23.23
2023-02-01T08:31:44.017Z,52.58
2023-02-01T08:34:16.423Z,61.85
2023-02-01T08:37:00.487Z,30.27
2023-02-01T08:43:18.950Z,31.98
2023-02-01T08:45:48.525Z,30.35
2023-02-01T08:48:18.293Z,33.25
2023-02-01T08:50:47.995Z,26.67
2023-02-01T08:53:23.597Z,24.63
2023-02-01T08:55:53.557Z,39.40
2023-02-01T08:58:23.767Z,22.83
2023-02-01T09:00:54.066Z,22.55
2023-02-01T09:03:24.494Z,29.30
2023-02-01T09:05:54.645Z,32.45
2023-02-01T09:08:24.438Z,44.13
2023-02-01T09:10:53.810Z,40.97
2023-02-01T09:13:24.761Z,49.50
2023-02-01T09:15:54.633Z,26.92
2023-02-01T09:18:24.418Z,31.60
2023-02-01T09:25:32.473Z,22.02
2023-02-01T09:28:02.682Z,21.67
2023-02-01T09:30:33.069Z,22.70
2023-02-01T09:33:03.294Z,36.53
2023-02-01T09:35:33.470Z,29.13
2023-02-01T09:42:26.386Z,26.42
2023-02-01T09:45:12.962Z,33.53
2023-02-01T09:48:13.415Z,27.20
2023-02-01T09:50:56.453Z,35.45
2023-02-01T09:53:33.901Z,27.35
2023-02-01T09:56:25.958Z,31.45
2023-02-01T09:59:45.793Z,39.17
2023-02-01T10:02:27.497Z,33.85
2023-02-01T10:05:05.704Z,28.15
2023-02-01T10:07:46.210Z,38.50
2023-02-01T10:10:28.632Z,33.53
2023-02-01T10:13:21.559Z,23.63
2023-02-01T10:16:16.913Z,28.20
2023-02-01T10:19:19.272Z,37.28
2023-02-01T10:22:12.817Z,37.97
2023-02-01T10:24:53.840Z,35.80
2023-02-01T10:27:32.459Z,29.58
2023-02-01T10:30:19.244Z,25.67
2023-02-01T10:32:52.488Z,23.52
2023-02-01T10:35:30.936Z,26.02
2023-02-01T10:38:04.874Z,24.80
2023-02-01T10:40:37.063Z,37.60
2023-02-01T10:43:06.413Z,28.00
2023-02-01T10:45:40.707Z,21.92
2023-02-01T10:48:12.307Z,37.53
2023-02-01T10:51:19.810Z,36.50
2023-02-01T10:54:04.969Z,34.10
2023-02-01T10:56:43.073Z,34.40
2023-02-01T11:00:11.925Z,34.83
2023-02-01T11:02:42.083Z,37.83
2023-02-01T11:05:14.256Z,44.03
2023-02-01T11:07:51.016Z,31.80
2023-02-01T11:10:40.111Z,52.00
2023-02-01T11:13:21.913Z,29.85
2023-02-01T11:16:00.593Z,33.55
2023-02-01T11:18:32.511Z,48.28
2023-02-01T11:21:02.809Z,36.47
2023-02-01T11:23:35.589Z,39.70
2023-02-01T11:26:23.161Z,31.63
2023-02-01T11:29:18.869Z,33.30
2023-02-01T11:31:53.439Z,35.80
2023-02-01T11:34:32.943Z,37.67
2023-02-01T11:37:08.111Z,34.92
2023-02-01T11:39:47.649Z,44.95
2023-02-01T11:42:23.105Z,31.83
2023-02-01T11:45:41.166Z,35.15
2023-02-01T11:49:00.200Z,40.45
2023-02-01T11:53:30.449Z,36.28
2023-02-01T12:00:46.519Z,55.17
2023-02-01T12:03:59.960Z,57.72
2023-02-01T12:06:56.242Z,59.08
2023-02-01T12:09:40.874Z,77.75
2023-02-01T12:12:29.918Z,45.53
2023-02-01T12:15:17.082Z,64.30
2023-02-01T12:18:24.674Z,76.70
2023-02-01T12:21:25.175Z,56.92
2023-02-01T12:24:12.820Z,46.70
2023-02-01T12:26:57.330Z,51.03
2023-02-01T12:30:39.164Z,51.00
2023-02-01T12:33:51.701Z,38.15
2023-02-01T12:36:44.206Z,48.28
2023-02-01T12:43:13.503Z,58.35
2023-02-01T12:45:59.697Z,55.08
2023-02-01T12:48:29.186Z,70.88
2023-02-01T12:51:10.443Z,67.68
2023-02-01T12:54:13.166Z,77.18
2023-02-01T12:56:45.762Z,64.78
2023-02-01T12:59:33.460Z,54.05
2023-02-01T13:02:32.000Z,40.60
2023-02-01T13:05:14.219Z,55.50
2023-02-01T13:07:50.431Z,61.75
2023-02-01T13:11:04.690Z,66.88
2023-02-01T13:13:50.903Z,54.50
2023-02-01T13:16:29.117Z,61.42
2023-02-01T13:19:43.156Z,52.20
2023-02-01T13:22:38.233Z,55.28
2023-02-01T13:25:46.976Z,69.53
2023-02-01T13:28:41.229Z,83.05
2023-02-01T13:31:11.744Z,105.28
2023-02-01T13:34:25.545Z,128.98
2023-02-01T13:37:10.475Z,96.18
2023-02-01T13:39:57.711Z,86.78
2023-02-01T13:42:40.589Z,103.97
2023-02-01T13:45:27.499Z,103.97
2023-02-01T13:48:01.030Z,116.57
2023-02-01T13:50:39.551Z,125.53
2023-02-01T13:53:24.179Z,127.78
2023-02-01T13:56:02.499Z,127.45
2023-02-01T13:58:35.811Z,123.13
2023-02-01T14:01:23.901Z,126.35
2023-02-01T14:04:05.140Z,119.60
2023-02-01T14:06:45.731Z,126.95
2023-02-01T14:09:39.187Z,123.45
2023-02-01T14:16:14.426Z,144.35
2023-02-01T14:18:49.492Z,142.88
2023-02-01T14:21:35.380Z,145.32
2023-02-01T14:24:10.413Z,169.38
2023-02-01T14:26:50.839Z,180.82
2023-02-01T14:29:29.523Z,251.55
2023-02-01T14:32:18.734Z,230.15
2023-02-01T14:34:51.337Z,284.45
2023-02-01T14:40:19.404Z,229.73
2023-02-01T14:42:54.670Z,234.80
2023-02-01T14:45:24.611Z,189.20
2023-02-01T14:48:09.832Z,201.88
2023-02-01T14:50:53.747Z,168.98
2023-02-01T14:53:38.461Z,177.20
2023-02-01T14:56:17.250Z,171.88
2023-02-01T14:59:19.986Z,164.77
2023-02-01T15:01:54.964Z,158.35
2023-02-01T15:04:29.755Z,172.18
2023-02-01T15:07:18.760Z,154.93
2023-02-01T15:09:51.722Z,128.50
2023-02-01T15:12:36.862Z,143.55
2023-02-01T15:15:27.685Z,141.82
2023-02-01T15:18:02.263Z,132.17
2023-02-01T15:20:34.474Z,119.90
2023-02-01T15:25:40.339Z,131.55
2023-02-01T15:28:16.653Z,136.02
2023-02-01T15:31:01.422Z,146.55
2023-02-01T15:33:33.063Z,166.38
2023-02-01T15:36:08.514Z,162.65
2023-02-01T15:38:46.773Z,158.18
2023-02-01T15:41:21.504Z,167.75
2023-02-01T15:44:16.851Z,160.80
2023-02-01T15:46:49.556Z,149.50
2023-02-01T15:51:52.814Z,209.38
2023-02-01T15:54:46.213Z,245.98
2023-02-01T15:57:33.396Z,258.58
2023-02-01T16:00:42.895Z,177.23
2023-02-01T16:03:35.757Z,163.30
2023-02-01T16:06:08.549Z,146.07
2023-02-01T16:08:39.120Z,156.73
2023-02-01T16:11:10.773Z,163.63
2023-02-01T16:13:39.775Z,170.18
2023-02-01T16:16:10.813Z,186.40
2023-02-01T16:18:39.838Z,190.35
2023-02-01T16:21:12.543Z,201.05
2023-02-01T16:23:42.543Z,190.45
2023-02-01T16:26:13.662Z,200.10
2023-02-01T16:28:43.691Z,204.40
2023-02-01T16:31:22.117Z,176.25
2023-02-01T16:33:54.206Z,184.27
2023-02-01T16:36:24.987Z,209.27
2023-02-01T16:38:56.116Z,191.48
2023-02-01T16:41:27.226Z,174.68
2023-02-01T16:43:58.237Z,184.90
2023-02-01T16:46:32.269Z,174.05
2023-02-01T16:49:03.382Z,176.02
2023-02-01T16:51:37.679Z,153.38
2023-02-01T16:54:07.509Z,167.90
2023-02-01T16:56:37.997Z,185.23
2023-02-01T16:59:07.929Z,186.90
2023-02-01T17:01:39.794Z,185.55
2023-02-01T17:04:09.945Z,199.63
2023-02-01T17:06:41.068Z,193.52
2023-02-01T17:09:12.626Z,198.10
2023-02-01T17:11:41.908Z,218.65
2023-02-01T17:14:18.225Z,206.10
2023-02-01T17:16:50.208Z,193.25
2023-02-01T17:19:24.841Z,220.90
2023-02-01T17:22:00.390Z,244.75
2023-02-01T17:24:42.719Z,240.93
2023-02-01T17:27:18.661Z,210.00
2023-02-01T17:29:49.522Z,221.48
2023-02-01T17:32:25.299Z,216.70
2023-02-01T17:34:54.384Z,214.95
2023-02-01T17:37:34.698Z,232.52
2023-02-01T17:40:04.385Z,209.95
2023-02-01T17:42:33.169Z,227.30
2023-02-01T17:45:13.246Z,226.82
2023-02-01T17:47:42.384Z,227.65
2023-02-01T17:50:11.977Z,215.32
2023-02-01T17:52:42.075Z,226.55
2023-02-01T17:55:24.360Z,217.25
2023-02-01T17:57:53.701Z,214.32
2023-02-01T18:00:23.292Z,234.18
2023-02-01T18:02:53.612Z,218.02
2023-02-01T18:05:30.524Z,227.13
2023-02-01T18:07:59.502Z,234.38
2023-02-01T18:10:28.297Z,234.80
2023-02-01T18:12:58.495Z,217.20
2023-02-01T18:15:27.611Z,226.38
2023-02-01T18:17:56.364Z,225.52
2023-02-01T18:20:28.137Z,235.35
2023-02-01T18:22:57.284Z,246.95
2023-02-01T18:25:28.751Z,276.67
2023-02-01T18:27:58.627Z,266.90
2023-02-01T18:30:33.857Z,260.50
2023-02-01T18:33:03.013Z,257.90
2023-02-01T18:35:33.742Z,271.95
2023-02-01T18:38:02.803Z,276.90
2023-02-01T18:40:47.010Z,289.45
2023-02-01T18:43:16.091Z,321.45
2023-02-01T18:45:46.478Z,307.63
2023-02-01T18:48:17.696Z,313.50
2023-02-01T18:50:47.383Z,302.42
2023-02-01T18:53:28.479Z,300.35
2023-02-01T18:55:59.410Z,287.45
2023-02-01T18:58:28.989Z,290.20
2023-02-01T19:01:00.361Z,291.25
2023-02-01T19:03:29.850Z,314.85
2023-02-01T19:05:59.527Z,313.98
2023-02-01T19:08:28.940Z,341.63
2023-02-01T19:11:01.465Z,336.80
2023-02-01T19:13:32.127Z,345.83
2023-02-01T19:16:06.909Z,345.80
2023-02-01T19:18:37.131Z,338.65
2023-02-01T19:21:12.030Z,349.48
2023-02-01T19:23:42.401Z,380.60
2023-02-01T19:26:16.364Z,372.75
2023-02-01T19:28:49.775Z,326.02
2023-02-01T19:31:20.350Z,325.88
2023-02-01T19:33:49.339Z,320.90
2023-02-01T19:36:18.171Z,305.33
2023-02-01T19:38:47.704Z,306.98
2023-02-01T19:41:16.453Z,324.30
2023-02-01T19:43:45.852Z,321.92
2023-02-01T19:46:14.893Z,319.98
2023-02-01T19:48:44.061Z,311.55
2023-02-01T19:51:13.677Z,317.60
2023-02-01T19:53:43.043Z,334.60
2023-02-01T19:56:11.930Z,331.00
2023-02-01T19:58:41.597Z,354.63
2023-02-01T20:01:09.706Z,320.77
2023-02-01T20:03:39.581Z,319.48
2023-02-01T20:06:08.556Z,310.88
2023-02-01T20:08:37.921Z,318.52
2023-02-01T20:11:09.892Z,305.75
2023-02-01T20:13:39.563Z,311.88
2023-02-01T20:16:11.015Z,314.10
2023-02-01T20:18:40.756Z,295.23
2023-02-01T20:21:09.770Z,283.70
2023-02-01T20:23:38.938Z,270.60
2023-02-01T20:26:12.312Z,255.20
2023-02-01T20:28:42.251Z,232.60
2023-02-01T20:31:16.490Z,239.52
2023-02-01T20:33:46.072Z,213.18
2023-02-01T20:36:15.198Z,222.65
2023-02-01T20:38:44.300Z,201.95
2023-02-01T20:41:13.571Z,197.20
2023-02-01T20:43:43.137Z,201.48
2023-02-01T20:46:12.419Z,176.38
2023-02-01T20:48:45.020Z,161.20
2023-02-01T20:51:17.169Z,181.52
2023-02-01T20:53:48.605Z,174.10
2023-02-01T20:56:17.972Z,155.43
2023-02-01T20:58:47.153Z,182.50
2023-02-01T21:01:17.321Z,146.80
2023-02-01T21:03:46.723Z,167.63
2023-02-01T21:06:15.663Z,139.02
2023-02-01T21:08:44.916Z,147.32
2023-02-01T21:11:16.906Z,148.43
2023-02-01T21:13:55.630Z,146.98
2023-02-01T21:16:24.998Z,151.93
2023-02-01T21:18:54.643Z,161.95
2023-02-01T21:21:24.059Z,183.50
2023-02-01T21:23:54.106Z,167.38
2023-02-01T21:26:26.079Z,166.15
2023-02-01T21:28:57.002Z,161.30
2023-02-01T21:31:26.749Z,175.27
2023-02-01T21:33:55.543Z,168.73
2023-02-01T21:36:25.671Z,160.77
2023-02-01T21:39:04.441Z,188.20
2023-02-01T21:41:53.858Z,204.00
2023-02-01T21:44:24.085Z,216.10
2023-02-01T21:46:53.086Z,228.90
2023-02-01T21:49:23.383Z,218.18
2023-02-01T21:51:52.657Z,205.10
2023-02-01T21:54:21.897Z,197.90
2023-02-01T21:56:51.012Z,195.65
2023-02-01T21:59:20.142Z,192.52
2023-02-01T22:01:49.308Z,205.20
2023-02-01T22:04:18.654Z,204.38
2023-02-01T22:06:48.069Z,208.98
2023-02-01T22:09:23.016Z,205.57
2023-02-01T22:11:54.745Z,203.52
2023-02-01T22:14:24.686Z,209.37
2023-02-01T22:16:53.949Z,221.52
2023-02-01T22:19:23.570Z,223.52
2023-02-01T22:21:52.450Z,221.88
2023-02-01T22:24:23.100Z,229.13
2023-02-01T22:26:52.978Z,256.95
2023-02-01T22:29:24.722Z,241.57
2023-02-01T22:31:54.456Z,231.40
2023-02-01T22:34:25.286Z,249.70
2023-02-01T22:36:54.665Z,236.15
2023-02-01T22:39:25.008Z,239.02
2023-02-01T22:41:55.174Z,227.90
2023-02-01T22:44:25.673Z,236.02
2023-02-01T22:46:54.798Z,233.48
2023-02-01T22:49:24.303Z,236.77
2023-02-01T22:51:53.613Z,255.45
2023-02-01T22:54:25.453Z,255.73
2023-02-01T22:56:54.770Z,230.27
2023-02-01T22:59:23.902Z,243.00
2023-02-01T23:01:53.595Z,262.33
2023-02-01T23:04:23.826Z,242.48
2023-02-01T23:06:53.613Z,256.08
2023-02-01T23:09:26.280Z,266.92
2023-02-01T23:11:56.608Z,247.88
2023-02-01T23:14:26.040Z,241.82
2023-02-01T23:16:59.349Z,260.58
2023-02-01T23:19:28.209Z,266.05
2023-02-01T23:21:57.222Z,233.40
2023-02-01T23:24:26.609Z,249.60
2023-02-01T23:26:55.580Z,266.00
2023-02-01T23:29:24.672Z,262.15
2023-02-01T23:31:53.718Z,237.15
2023-02-01T23:34:22.995Z,253.98
2023-02-01T23:36:51.895Z,270.65
2023-02-01T23:39:21.193Z,273.25
2023-02-01T23:41:50.133Z,289.88
2023-02-01T23:44:19.208Z,312.52
2023-02-01T23:46:51.019Z,310.65
2023-02-01T23:49:20.474Z,306.17
2023-02-01T23:51:54.104Z,285.95
2023-02-01T23:54:24.815Z,295.98
2023-02-01T23:56:54.315Z,279.85
2023-02-01T23:59:27.462Z,316.02
